sensor_id;sensor_type;location;lat;lon;timestamp;pressure;altitude;pressure_sealevel;temperature;humidity
54816;BME280;40715;55.752;37.884;2023-03-01T00:01:03;98080.81;;;26.77;21.61
54816;BME280;40715;55.752;37.884;2023-03-01T00:03:31;98083.50;;;26.77;21.45
54816;BME280;40715;55.752;37.884;2023-03-01T00:05:58;98079.78;;;26.78;21.30
54816;BME280;40715;55.752;37.884;2023-03-01T00:08:26;98079.28;;;26.75;21.39
54816;BME280;40715;55.752;37.884;2023-03-01T00:11:15;98078.06;;;26.85;21.31
54816;BME280;40715;55.752;37.884;2023-03-01T00:13:44;98073.72;;;26.76;21.51
54816;BME280;40715;55.752;37.884;2023-03-01T00:16:18;98072.88;;;26.76;21.67
54816;BME280;40715;55.752;37.884;2023-03-01T00:18:45;98081.81;;;26.76;21.58
54816;BME280;40715;55.752;37.884;2023-03-01T00:21:13;98067.84;;;26.73;21.80
54816;BME280;40715;55.752;37.884;2023-03-01T00:23:40;98079.97;;;26.77;21.68
54816;BME280;40715;55.752;37.884;2023-03-01T00:26:09;98060.56;;;26.73;21.83
54816;BME280;40715;55.752;37.884;2023-03-01T00:28:37;98067.13;;;26.79;21.97
54816;BME280;40715;55.752;37.884;2023-03-01T00:31:09;98063.59;;;26.78;21.36
54816;BME280;40715;55.752;37.884;2023-03-01T00:33:36;98052.78;;;26.78;21.31
54816;BME280;40715;55.752;37.884;2023-03-01T00:36:04;98065.09;;;26.81;21.29
54816;BME280;40715;55.752;37.884;2023-03-01T00:38:35;98060.72;;;26.80;20.88
54816;BME280;40715;55.752;37.884;2023-03-01T00:41:10;98068.44;;;26.83;21.86
54816;BME280;40715;55.752;37.884;2023-03-01T00:43:37;98057.00;;;26.81;20.76
54816;BME280;40715;55.752;37.884;2023-03-01T00:46:09;98060.72;;;26.80;21.05
54816;BME280;40715;55.752;37.884;2023-03-01T00:48:36;98068.81;;;26.80;21.28
54816;BME280;40715;55.752;37.884;2023-03-01T00:51:12;98062.53;;;26.79;21.85
54816;BME280;40715;55.752;37.884;2023-03-01T00:53:39;98060.72;;;26.80;21.67
54816;BME280;40715;55.752;37.884;2023-03-01T00:56:07;98058.19;;;26.78;21.12
54816;BME280;40715;55.752;37.884;2023-03-01T00:58:35;98058.53;;;26.75;21.43
54816;BME280;40715;55.752;37.884;2023-03-01T01:01:13;98050.63;;;26.74;21.09
54816;BME280;40715;55.752;37.884;2023-03-01T01:03:51;98066.47;;;26.77;21.29
54816;BME280;40715;55.752;37.884;2023-03-01T01:06:21;98061.25;;;26.75;21.38
54816;BME280;40715;55.752;37.884;2023-03-01T01:08:49;98052.13;;;26.68;21.09
54816;BME280;40715;55.752;37.884;2023-03-01T01:11:18;98063.94;;;26.75;21.24
54816;BME280;40715;55.752;37.884;2023-03-01T01:13:46;98058.72;;;26.74;21.44
54816;BME280;40715;55.752;37.884;2023-03-01T01:16:14;98061.41;;;26.74;21.60
54816;BME280;40715;55.752;37.884;2023-03-01T01:18:42;98058.72;;;26.74;21.24
54816;BME280;40715;55.752;37.884;2023-03-01T01:21:11;98049.94;;;26.72;21.72
54816;BME280;40715;55.752;37.884;2023-03-01T01:23:39;98055.16;;;26.73;21.17
54816;BME280;40715;55.752;37.884;2023-03-01T01:26:09;98056.16;;;26.72;21.42
54816;BME280;40715;55.752;37.884;2023-03-01T01:28:36;98053.63;;;26.70;21.00
54816;BME280;40715;55.752;37.884;2023-03-01T01:31:04;98062.59;;;26.71;21.16
54816;BME280;40715;55.752;37.884;2023-03-01T01:33:31;98060.56;;;26.73;21.06
54816;BME280;40715;55.752;37.884;2023-03-01T01:35:59;98059.72;;;26.73;21.35
54816;BME280;40715;55.752;37.884;2023-03-01T01:38:26;98057.84;;;26.73;21.21
54816;BME280;40715;55.752;37.884;2023-03-01T01:40:53;98060.38;;;26.75;21.27
54816;BME280;40715;55.752;37.884;2023-03-01T01:45:55;98059.91;;;26.71;21.05
54816;BME280;40715;55.752;37.884;2023-03-01T01:48:32;98063.44;;;26.72;21.58
54816;BME280;40715;55.752;37.884;2023-03-01T01:51:10;98072.38;;;26.72;20.91
54816;BME280;40715;55.752;37.884;2023-03-01T01:53:39;98054.97;;;26.66;20.89
54816;BME280;40715;55.752;37.884;2023-03-01T01:56:08;98065.31;;;26.71;21.59
54816;BME280;40715;55.752;37.884;2023-03-01T01:58:40;98066.31;;;26.70;21.52
54816;BME280;40715;55.752;37.884;2023-03-01T02:01:08;98067.16;;;26.70;21.76
54816;BME280;40715;55.752;37.884;2023-03-01T02:03:37;98059.38;;;26.67;21.60
54816;BME280;40715;55.752;37.884;2023-03-01T02:08:49;98068.34;;;26.68;21.59
54816;BME280;40715;55.752;37.884;2023-03-01T02:11:19;98078.28;;;26.67;21.25
54816;BME280;40715;55.752;37.884;2023-03-01T02:13:47;98073.75;;;26.68;21.34
54816;BME280;40715;55.752;37.884;2023-03-01T02:16:16;98069.34;;;26.67;21.42
54816;BME280;40715;55.752;37.884;2023-03-01T02:18:43;98073.59;;;26.69;21.26
54816;BME280;40715;55.752;37.884;2023-03-01T02:21:17;98070.88;;;26.69;20.78
54816;BME280;40715;55.752;37.884;2023-03-01T02:23:50;98067.16;;;26.70;21.20
54816;BME280;40715;55.752;37.884;2023-03-01T02:26:37;98069.63;;;26.80;21.14
54816;BME280;40715;55.752;37.884;2023-03-01T02:29:07;98068.00;;;26.71;21.00
54816;BME280;40715;55.752;37.884;2023-03-01T02:31:34;98074.41;;;26.70;21.42
54816;BME280;40715;55.752;37.884;2023-03-01T02:34:20;98073.72;;;26.76;21.55
54816;BME280;40715;55.752;37.884;2023-03-01T02:39:42;98067.94;;;26.79;21.51
54816;BME280;40715;55.752;37.884;2023-03-01T02:42:14;98069.19;;;26.68;21.00
54816;BME280;40715;55.752;37.884;2023-03-01T02:44:42;98074.41;;;26.70;21.26
54816;BME280;40715;55.752;37.884;2023-03-01T02:47:09;98073.59;;;26.69;20.92
54816;BME280;40715;55.752;37.884;2023-03-01T02:49:36;98070.03;;;26.69;21.45
54816;BME280;40715;55.752;37.884;2023-03-01T02:52:34;98077.72;;;26.89;21.36
54816;BME280;40715;55.752;37.884;2023-03-01T02:55:08;98075.56;;;26.76;21.51
54816;BME280;40715;55.752;37.884;2023-03-01T02:57:38;98070.34;;;26.74;22.33
54816;BME280;40715;55.752;37.884;2023-03-01T03:00:12;98068.47;;;26.75;22.95
54816;BME280;40715;55.752;37.884;2023-03-01T03:02:49;98071.00;;;26.76;23.03
54816;BME280;40715;55.752;37.884;2023-03-01T03:05:18;98076.22;;;26.78;22.54
54816;BME280;40715;55.752;37.884;2023-03-01T03:07:46;98082.50;;;26.78;23.38
54816;BME280;40715;55.752;37.884;2023-03-01T03:10:24;98086.72;;;26.81;23.74
54816;BME280;40715;55.752;37.884;2023-03-01T03:12:59;98075.41;;;26.77;24.08
54816;BME280;40715;55.752;37.884;2023-03-01T03:15:27;98073.72;;;26.76;23.71
54816;BME280;40715;55.752;37.884;2023-03-01T03:17:57;98079.28;;;26.75;23.50
54816;BME280;40715;55.752;37.884;2023-03-01T03:20:26;98076.13;;;26.71;23.99
54816;BME280;40715;55.752;37.884;2023-03-01T03:22:55;98081.47;;;26.79;24.45
54816;BME280;40715;55.752;37.884;2023-03-01T03:25:23;98084.16;;;26.79;24.32
54816;BME280;40715;55.752;37.884;2023-03-01T03:27:51;98083.50;;;26.77;24.55
54816;BME280;40715;55.752;37.884;2023-03-01T03:30:25;98082.69;;;26.77;24.31
54816;BME280;40715;55.752;37.884;2023-03-01T03:32:53;98084.34;;;26.78;23.79
54816;BME280;40715;55.752;37.884;2023-03-01T03:35:29;98085.84;;;26.80;24.25
54816;BME280;40715;55.752;37.884;2023-03-01T03:38:01;98096.66;;;26.80;24.11
54816;BME280;40715;55.752;37.884;2023-03-01T03:40:41;98093.78;;;26.82;23.51
54816;BME280;40715;55.752;37.884;2023-03-01T03:43:14;98093.78;;;26.82;23.88
54816;BME280;40715;55.752;37.884;2023-03-01T03:45:43;98095.66;;;26.81;23.79
54816;BME280;40715;55.752;37.884;2023-03-01T03:48:11;98089.41;;;26.81;23.72
54816;BME280;40715;55.752;37.884;2023-03-01T03:50:39;98090.44;;;26.80;23.79
54816;BME280;40715;55.752;37.884;2023-03-01T03:53:10;98093.97;;;26.80;23.56
54816;BME280;40715;55.752;37.884;2023-03-01T03:55:37;98087.03;;;26.78;23.46
54816;BME280;40715;55.752;37.884;2023-03-01T03:58:08;98087.91;;;26.78;23.36
54816;BME280;40715;55.752;37.884;2023-03-01T04:00:39;98089.25;;;26.74;23.77
54816;BME280;40715;55.752;37.884;2023-03-01T04:03:07;98093.31;;;26.78;23.92
54816;BME280;40715;55.752;37.884;2023-03-01T04:05:35;98090.97;;;26.75;23.64
54816;BME280;40715;55.752;37.884;2023-03-01T04:08:03;98084.88;;;26.65;23.62
54816;BME280;40715;55.752;37.884;2023-03-01T04:10:41;98106.47;;;26.73;23.79
54816;BME280;40715;55.752;37.884;2023-03-01T04:13:14;98093.34;;;26.70;23.65
54816;BME280;40715;55.752;37.884;2023-03-01T04:15:41;98085.72;;;26.65;24.07
54816;BME280;40715;55.752;37.884;2023-03-01T04:18:12;98101.25;;;26.63;23.43
54816;BME280;40715;55.752;37.884;2023-03-01T04:20:40;98100.25;;;26.64;23.29
54816;BME280;40715;55.752;37.884;2023-03-01T04:23:25;98104.78;;;26.72;23.23
54816;BME280;40715;55.752;37.884;2023-03-01T04:25:55;98123.91;;;26.62;23.53
54816;BME280;40715;55.752;37.884;2023-03-01T04:28:28;98115.94;;;26.61;23.26
54816;BME280;40715;55.752;37.884;2023-03-01T04:30:57;98123.22;;;26.60;23.69
54816;BME280;40715;55.752;37.884;2023-03-01T04:33:25;98116.28;;;26.58;24.11
54816;BME280;40715;55.752;37.884;2023-03-01T04:35:52;98125.25;;;26.58;24.19
54816;BME280;40715;55.752;37.884;2023-03-01T04:38:20;98123.03;;;26.62;24.17
54816;BME280;40715;55.752;37.884;2023-03-01T04:40:48;98122.19;;;26.61;24.04
54816;BME280;40715;55.752;37.884;2023-03-01T04:43:15;98132.31;;;26.67;23.81
54816;BME280;40715;55.752;37.884;2023-03-01T04:45:42;98137.56;;;26.69;24.36
54816;BME280;40715;55.752;37.884;2023-03-01T04:48:09;98129.09;;;26.72;24.34
54816;BME280;40715;55.752;37.884;2023-03-01T04:50:36;98125.75;;;26.70;23.92
54816;BME280;40715;55.752;37.884;2023-03-01T04:53:03;98127.75;;;26.76;24.24
54816;BME280;40715;55.752;37.884;2023-03-01T04:55:30;98131.59;;;26.82;24.11
54816;BME280;40715;55.752;37.884;2023-03-01T04:57:58;98131.44;;;26.83;23.92
54816;BME280;40715;55.752;37.884;2023-03-01T05:00:25;98134.63;;;26.87;24.05
54816;BME280;40715;55.752;37.884;2023-03-01T05:02:54;98137.34;;;26.87;23.94
54816;BME280;40715;55.752;37.884;2023-03-01T05:05:27;98127.88;;;26.91;23.82
54816;BME280;40715;55.752;37.884;2023-03-01T05:07:57;98134.78;;;26.94;24.04
54816;BME280;40715;55.752;37.884;2023-03-01T05:10:26;98140.84;;;26.96;24.21
54816;BME280;40715;55.752;37.884;2023-03-01T05:12:53;98122.63;;;26.90;23.86
54816;BME280;40715;55.752;37.884;2023-03-01T05:15:20;98144.88;;;27.00;23.57
54816;BME280;40715;55.752;37.884;2023-03-01T05:17:54;98149.75;;;27.04;23.90
54816;BME280;40715;55.752;37.884;2023-03-01T05:20:21;98153.16;;;27.07;23.49
54816;BME280;40715;55.752;37.884;2023-03-01T05:22:52;98154.97;;;27.06;23.84
54816;BME280;40715;55.752;37.884;2023-03-01T05:25:21;98162.72;;;27.09;23.57
54816;BME280;40715;55.752;37.884;2023-03-01T05:27:48;98162.06;;;27.15;23.46
54816;BME280;40715;55.752;37.884;2023-03-01T05:30:15;98169.09;;;27.25;23.58
54816;BME280;40715;55.752;37.884;2023-03-01T05:32:48;98163.00;;;27.31;23.35
54816;BME280;40715;55.752;37.884;2023-03-01T05:35:17;98155.38;;;27.34;23.06
54816;BME280;40715;55.752;37.884;2023-03-01T05:37:47;98166.81;;;27.45;23.18
54816;BME280;40715;55.752;37.884;2023-03-01T05:40:17;98175.91;;;27.52;23.19
54816;BME280;40715;55.752;37.884;2023-03-01T05:42:55;98176.00;;;27.67;23.02
54816;BME280;40715;55.752;37.884;2023-03-01T05:45:24;98173.28;;;27.67;23.07
54816;BME280;40715;55.752;37.884;2023-03-01T05:47:51;98176.00;;;27.67;23.01
54816;BME280;40715;55.752;37.884;2023-03-01T05:50:21;98179.84;;;27.72;23.03
54816;BME280;40715;55.752;37.884;2023-03-01T05:52:50;98173.22;;;27.75;22.95
54816;BME280;40715;55.752;37.884;2023-03-01T05:55:20;98183.69;;;27.78;22.87
54816;BME280;40715;55.752;37.884;2023-03-01T05:57:47;98177.28;;;27.79;22.81
54816;BME280;40715;55.752;37.884;2023-03-01T06:00:16;98188.91;;;27.80;23.28
54816;BME280;40715;55.752;37.884;2023-03-01T06:02:44;98185.19;;;27.81;23.61
54816;BME280;40715;55.752;37.884;2023-03-01T06:05:12;98194.66;;;27.85;23.80
54816;BME280;40715;55.752;37.884;2023-03-01T06:07:40;98196.31;;;27.86;23.75
54816;BME280;40715;55.752;37.884;2023-03-01T06:10:11;98190.91;;;27.86;23.85
54816;BME280;40715;55.752;37.884;2023-03-01T06:12:39;98198.38;;;27.84;23.84
54816;BME280;40715;55.752;37.884;2023-03-01T06:15:08;98191.94;;;27.85;24.00
54816;BME280;40715;55.752;37.884;2023-03-01T06:17:38;98197.16;;;27.86;23.96
54816;BME280;40715;55.752;37.884;2023-03-01T06:20:10;98194.47;;;27.86;24.12
54816;BME280;40715;55.752;37.884;2023-03-01T06:22:37;98189.88;;;27.87;23.71
54816;BME280;40715;55.752;37.884;2023-03-01T06:25:05;98198.00;;;27.87;23.76
54816;BME280;40715;55.752;37.884;2023-03-01T06:27:33;98203.06;;;27.90;23.85
54816;BME280;40715;55.752;37.884;2023-03-01T06:29:59;98200.34;;;27.90;24.03
54816;BME280;40715;55.752;37.884;2023-03-01T06:32:29;98195.94;;;27.89;23.73
54816;BME280;40715;55.752;37.884;2023-03-01T06:34:57;98210.16;;;27.91;23.63
54816;BME280;40715;55.752;37.884;2023-03-01T06:37:25;98203.72;;;27.92;23.54
54816;BME280;40715;55.752;37.884;2023-03-01T06:39:52;98213.31;;;27.95;23.58
54816;BME280;40715;55.752;37.884;2023-03-01T06:42:19;98208.59;;;27.97;23.50
54816;BME280;40715;55.752;37.884;2023-03-01T06:44:46;98214.19;;;27.95;23.42
54816;BME280;40715;55.752;37.884;2023-03-01T06:47:13;98215.38;;;28.01;23.15
54816;BME280;40715;55.752;37.884;2023-03-01T06:49:41;98208.06;;;28.01;23.07
54816;BME280;40715;55.752;37.884;2023-03-01T06:52:08;98217.34;;;28.07;23.06
54816;BME280;40715;55.752;37.884;2023-03-01T06:54:35;98218.16;;;28.07;23.07
54816;BME280;40715;55.752;37.884;2023-03-01T06:57:02;98221.38;;;28.11;23.24
54816;BME280;40715;55.752;37.884;2023-03-01T06:59:29;98211.88;;;28.15;22.88
54816;BME280;40715;55.752;37.884;2023-03-01T07:01:56;98224.38;;;28.16;22.83
54816;BME280;40715;55.752;37.884;2023-03-01T07:04:23;98225.03;;;28.18;22.48
54816;BME280;40715;55.752;37.884;2023-03-01T07:06:49;98232.59;;;28.23;22.75
54816;BME280;40715;55.752;37.884;2023-03-01T07:09:24;98236.63;;;28.27;22.74
54816;BME280;40715;55.752;37.884;2023-03-01T07:11:51;98240.69;;;28.31;22.71
54816;BME280;40715;55.752;37.884;2023-03-01T07:14:18;98246.59;;;28.35;22.59
54816;BME280;40715;55.752;37.884;2023-03-01T07:16:46;98243.13;;;28.41;22.41
54816;BME280;40715;55.752;37.884;2023-03-01T07:19:13;98239.69;;;28.47;22.54
54816;BME280;40715;55.752;37.884;2023-03-01T07:21:40;98247.56;;;28.57;22.48
54816;BME280;40715;55.752;37.884;2023-03-01T07:24:07;98252.09;;;28.65;22.66
54816;BME280;40715;55.752;37.884;2023-03-01T07:26:34;98257.72;;;28.78;22.53
54816;BME280;40715;55.752;37.884;2023-03-01T07:29:03;98256.34;;;28.82;22.36
54816;BME280;40715;55.752;37.884;2023-03-01T07:31:30;98251.38;;;28.86;22.35
54816;BME280;40715;55.752;37.884;2023-03-01T07:33:57;98256.44;;;28.89;22.38
54816;BME280;40715;55.752;37.884;2023-03-01T07:36:24;98252.50;;;28.91;22.27
54816;BME280;40715;55.752;37.884;2023-03-01T07:38:52;98260.94;;;28.97;22.24
54816;BME280;40715;55.752;37.884;2023-03-01T07:41:19;98257.19;;;28.98;22.06
54816;BME280;40715;55.752;37.884;2023-03-01T07:43:45;98265.97;;;29.00;22.21
54816;BME280;40715;55.752;37.884;2023-03-01T07:46:12;98256.25;;;29.05;22.09
54816;BME280;40715;55.752;37.884;2023-03-01T07:48:39;98259.53;;;29.16;21.96
54816;BME280;40715;55.752;37.884;2023-03-01T07:51:07;98266.25;;;29.20;21.92
54816;BME280;40715;55.752;37.884;2023-03-01T07:53:34;98258.25;;;29.26;21.86
54816;BME280;40715;55.752;37.884;2023-03-01T07:56:12;98255.50;;;29.41;21.92
54816;BME280;40715;55.752;37.884;2023-03-01T07:58:41;98254.09;;;29.46;21.54
54816;BME280;40715;55.752;37.884;2023-03-01T08:01:11;98256.09;;;29.52;21.51
54816;BME280;40715;55.752;37.884;2023-03-01T08:03:38;98253.44;;;29.58;21.33
54816;BME280;40715;55.752;37.884;2023-03-01T08:06:09;98267.84;;;29.59;21.48
54816;BME280;40715;55.752;37.884;2023-03-01T08:08:36;98260.44;;;29.68;21.14
54816;BME280;40715;55.752;37.884;2023-03-01T08:11:05;98257.63;;;29.76;21.21
54816;BME280;40715;55.752;37.884;2023-03-01T08:13:33;98260.78;;;29.79;20.80
54816;BME280;40715;55.752;37.884;2023-03-01T08:16:04;98260.91;;;29.86;20.78
54816;BME280;40715;55.752;37.884;2023-03-01T08:18:32;98264.53;;;29.93;20.69
54816;BME280;40715;55.752;37.884;2023-03-01T08:21:06;98267.13;;;30.02;20.77
54816;BME280;40715;55.752;37.884;2023-03-01T08:23:34;98268.03;;;30.09;20.45
54816;BME280;40715;55.752;37.884;2023-03-01T08:26:16;98271.72;;;30.23;20.51
54816;BME280;40715;55.752;37.884;2023-03-01T08:28:43;98265.06;;;30.25;20.27
54816;BME280;40715;55.752;37.884;2023-03-01T08:31:35;98267.41;;;30.50;19.79
54816;BME280;40715;55.752;37.884;2023-03-01T08:34:06;98272.59;;;30.45;19.83
54816;BME280;40715;55.752;37.884;2023-03-01T08:36:37;98268.03;;;30.52;19.75
54816;BME280;40715;55.752;37.884;2023-03-01T08:39:05;98282.94;;;30.56;19.58
54816;BME280;40715;55.752;37.884;2023-03-01T08:41:32;98277.75;;;30.61;19.20
54816;BME280;40715;55.752;37.884;2023-03-01T08:43:59;98290.34;;;30.69;19.21
54816;BME280;40715;55.752;37.884;2023-03-01T08:46:31;98288.72;;;30.75;19.11
54816;BME280;40715;55.752;37.884;2023-03-01T08:48:59;98292.78;;;30.86;18.97
54816;BME280;40715;55.752;37.884;2023-03-01T08:51:26;98285.88;;;30.83;18.55
54816;BME280;40715;55.752;37.884;2023-03-01T08:53:53;98289.06;;;30.93;18.69
54816;BME280;40715;55.752;37.884;2023-03-01T08:56:20;98280.72;;;30.95;18.74
54816;BME280;40715;55.752;37.884;2023-03-01T08:58:48;98291.00;;;30.99;18.27
54816;BME280;40715;55.752;37.884;2023-03-01T09:01:17;98290.44;;;31.04;18.42
54816;BME280;40715;55.752;37.884;2023-03-01T09:03:45;98295.69;;;31.06;18.29
54816;BME280;40715;55.752;37.884;2023-03-01T09:06:12;98288.97;;;31.08;18.04
54816;BME280;40715;55.752;37.884;2023-03-01T09:08:42;98290.88;;;31.08;17.95
54816;BME280;40715;55.752;37.884;2023-03-01T09:11:11;98295.09;;;31.10;18.00
54816;BME280;40715;55.752;37.884;2023-03-01T09:13:39;98293.19;;;31.11;17.93
54816;BME280;40715;55.752;37.884;2023-03-01T09:16:11;98298.84;;;31.09;17.67
54816;BME280;40715;55.752;37.884;2023-03-01T09:18:38;98304.47;;;31.08;17.47
54816;BME280;40715;55.752;37.884;2023-03-01T09:21:07;98300.47;;;31.04;17.63
54816;BME280;40715;55.752;37.884;2023-03-01T09:23:41;98299.84;;;31.02;17.83
54816;BME280;40715;55.752;37.884;2023-03-01T09:26:10;98300.00;;;31.00;17.39
54816;BME280;40715;55.752;37.884;2023-03-01T09:28:38;98293.09;;;30.97;17.36
54816;BME280;40715;55.752;37.884;2023-03-01T09:31:05;98306.03;;;30.95;17.71
54816;BME280;40715;55.752;37.884;2023-03-01T09:33:33;98289.47;;;30.90;17.64
54816;BME280;40715;55.752;37.884;2023-03-01T09:36:02;98302.63;;;30.87;17.25
54816;BME280;40715;55.752;37.884;2023-03-01T09:38:30;98292.97;;;30.84;17.26
54816;BME280;40715;55.752;37.884;2023-03-01T09:40:57;98290.66;;;30.81;17.75
54816;BME280;40715;55.752;37.884;2023-03-01T09:43:55;98290.38;;;30.97;17.68
54816;BME280;40715;55.752;37.884;2023-03-01T09:46:26;98284.31;;;30.74;17.56
54816;BME280;40715;55.752;37.884;2023-03-01T09:48:58;98300.59;;;30.67;17.58
54816;BME280;40715;55.752;37.884;2023-03-01T09:51:31;98294.69;;;30.63;17.63
54816;BME280;40715;55.752;37.884;2023-03-01T09:54:04;98298.22;;;30.57;17.54
54816;BME280;40715;55.752;37.884;2023-03-01T09:56:39;98296.72;;;30.55;17.59
54816;BME280;40715;55.752;37.884;2023-03-01T09:59:26;98292.19;;;30.62;17.59
54816;BME280;40715;55.752;37.884;2023-03-01T10:04:48;98296.31;;;30.36;17.64
54816;BME280;40715;55.752;37.884;2023-03-01T10:09:48;98304.97;;;30.25;17.93
54816;BME280;40715;55.752;37.884;2023-03-01T10:12:18;98301.53;;;30.16;18.08
54816;BME280;40715;55.752;37.884;2023-03-01T10:20:28;98305.28;;;30.15;17.95
54816;BME280;40715;55.752;37.884;2023-03-01T10:22:56;98304.03;;;29.96;17.83
54816;BME280;40715;55.752;37.884;2023-03-01T10:25:27;98306.47;;;29.91;17.97
54816;BME280;40715;55.752;37.884;2023-03-01T10:28:20;98301.56;;;30.01;17.63
54816;BME280;40715;55.752;37.884;2023-03-01T10:30:52;98303.00;;;29.82;18.04
54816;BME280;40715;55.752;37.884;2023-03-01T10:33:35;98318.81;;;29.78;17.72
54816;BME280;40715;55.752;37.884;2023-03-01T10:36:03;98297.41;;;29.69;17.70
54816;BME280;40715;55.752;37.884;2023-03-01T10:38:48;98316.03;;;29.72;17.63
54816;BME280;40715;55.752;37.884;2023-03-01T10:41:15;98317.34;;;29.61;17.65
54816;BME280;40715;55.752;37.884;2023-03-01T10:43:48;98315.78;;;29.52;17.81
54816;BME280;40715;55.752;37.884;2023-03-01T10:46:29;98314.28;;;29.49;17.77
54816;BME280;40715;55.752;37.884;2023-03-01T10:49:16;98308.47;;;29.52;17.99
54816;BME280;40715;55.752;37.884;2023-03-01T10:51:46;98303.31;;;29.42;17.86
54816;BME280;40715;55.752;37.884;2023-03-01T10:54:27;98318.97;;;29.40;17.96
54816;BME280;40715;55.752;37.884;2023-03-01T10:57:00;98315.31;;;29.33;17.98
54816;BME280;40715;55.752;37.884;2023-03-01T11:07:53;98310.31;;;29.22;17.67
54816;BME280;40715;55.752;37.884;2023-03-01T11:10:24;98312.81;;;29.08;17.96
54816;BME280;40715;55.752;37.884;2023-03-01T11:12:53;98311.31;;;29.06;17.86
54816;BME280;40715;55.752;37.884;2023-03-01T11:15:27;98319.81;;;29.03;18.00
54816;BME280;40715;55.752;37.884;2023-03-01T11:17:56;98320.00;;;29.01;17.95
54816;BME280;40715;55.752;37.884;2023-03-01T11:20:38;98324.09;;;28.97;18.04
54816;BME280;40715;55.752;37.884;2023-03-01T11:23:10;98328.06;;;28.95;18.05
54816;BME280;40715;55.752;37.884;2023-03-01T11:25:42;98320.94;;;28.93;18.02
54816;BME280;40715;55.752;37.884;2023-03-01T11:28:17;98322.63;;;28.95;17.99
54816;BME280;40715;55.752;37.884;2023-03-01T11:31:16;98325.81;;;28.98;18.05
54816;BME280;40715;55.752;37.884;2023-03-01T11:33:59;98331.28;;;28.90;17.94
54816;BME280;40715;55.752;37.884;2023-03-01T11:41:48;98319.03;;;28.79;18.07
54816;BME280;40715;55.752;37.884;2023-03-01T11:44:23;98317.03;;;28.73;17.91
54816;BME280;40715;55.752;37.884;2023-03-01T11:47:07;98322.78;;;28.78;17.86
54816;BME280;40715;55.752;37.884;2023-03-01T12:01:32;98334.63;;;28.77;18.05
54816;BME280;40715;55.752;37.884;2023-03-01T12:04:32;98351.25;;;28.74;17.94
54816;BME280;40715;55.752;37.884;2023-03-01T12:07:17;98346.41;;;28.61;18.19
54816;BME280;40715;55.752;37.884;2023-03-01T12:18:05;98344.50;;;28.47;18.06
54816;BME280;40715;55.752;37.884;2023-03-01T12:21:02;98364.94;;;28.57;18.33
54816;BME280;40715;55.752;37.884;2023-03-01T12:24:14;98348.00;;;28.55;18.32
54816;BME280;40715;55.752;37.884;2023-03-01T12:29:48;98347.44;;;28.37;18.28
54816;BME280;40715;55.752;37.884;2023-03-01T12:32:35;98351.16;;;28.36;18.32
54816;BME280;40715;55.752;37.884;2023-03-01T12:36:07;98344.69;;;28.45;18.05
54816;BME280;40715;55.752;37.884;2023-03-01T12:38:23;98346.97;;;28.33;18.39
54816;BME280;40715;55.752;37.884;2023-03-01T12:41:50;98342.03;;;28.37;18.30
54816;BME280;40715;55.752;37.884;2023-03-01T12:44:12;98337.34;;;28.31;18.38
54816;BME280;40715;55.752;37.884;2023-03-01T12:49:41;98327.56;;;28.21;18.43
54816;BME280;40715;55.752;37.884;2023-03-01T12:52:14;98326.56;;;28.22;18.46
54816;BME280;40715;55.752;37.884;2023-03-01T12:54:43;98333.34;;;28.18;18.50
54816;BME280;40715;55.752;37.884;2023-03-01T13:03:09;98337.38;;;28.22;18.48
54816;BME280;40715;55.752;37.884;2023-03-01T13:08:22;98330.00;;;28.16;18.21
54816;BME280;40715;55.752;37.884;2023-03-01T13:10:59;98338.44;;;28.13;18.32
54816;BME280;40715;55.752;37.884;2023-03-01T13:13:28;98332.88;;;28.15;18.54
54816;BME280;40715;55.752;37.884;2023-03-01T13:15:56;98330.69;;;28.10;18.38
54816;BME280;40715;55.752;37.884;2023-03-01T13:20:54;98329.66;;;28.11;18.31
54816;BME280;40715;55.752;37.884;2023-03-01T13:30:59;98321.22;;;28.06;18.56
54816;BME280;40715;55.752;37.884;2023-03-01T13:35:54;98309.94;;;28.02;18.38
54816;BME280;40715;55.752;37.884;2023-03-01T13:41:08;98314.34;;;28.03;18.54
54816;BME280;40715;55.752;37.884;2023-03-01T13:43:37;98301.44;;;27.97;18.72
54816;BME280;40715;55.752;37.884;2023-03-01T13:48:40;98324.84;;;27.98;18.48
54816;BME280;40715;55.752;37.884;2023-03-01T13:51:09;98337.84;;;27.95;18.37
54816;BME280;40715;55.752;37.884;2023-03-01T13:53:45;98310.44;;;27.98;18.34
54816;BME280;40715;55.752;37.884;2023-03-01T13:56:21;98317.38;;;28.00;18.53
54816;BME280;40715;55.752;37.884;2023-03-01T14:01:32;98315.16;;;27.96;18.51
54816;BME280;40715;55.752;37.884;2023-03-01T14:04:00;98316.38;;;27.93;18.38
54816;BME280;40715;55.752;37.884;2023-03-01T14:06:33;98322.13;;;27.90;18.42
54816;BME280;40715;55.752;37.884;2023-03-01T14:19:57;98320.31;;;27.82;18.22
54816;BME280;40715;55.752;37.884;2023-03-01T14:22:28;98306.97;;;27.81;18.51
54816;BME280;40715;55.752;37.884;2023-03-01T14:25:06;98314.72;;;27.84;18.41
54816;BME280;40715;55.752;37.884;2023-03-01T14:27:44;98312.22;;;27.82;18.32
54816;BME280;40715;55.752;37.884;2023-03-01T14:30:16;98318.81;;;27.80;18.26
54816;BME280;40715;55.752;37.884;2023-03-01T14:32:57;98311.34;;;27.82;18.35
54816;BME280;40715;55.752;37.884;2023-03-01T14:35:28;98312.56;;;27.79;18.43
54816;BME280;40715;55.752;37.884;2023-03-01T14:37:57;98302.94;;;27.77;18.16
54816;BME280;40715;55.752;37.884;2023-03-01T14:40:32;98315.13;;;27.72;17.89
54816;BME280;40715;55.752;37.884;2023-03-01T14:43:02;98294.50;;;27.71;17.86
54816;BME280;40715;55.752;37.884;2023-03-01T14:45:35;98291.13;;;27.69;17.56
54816;BME280;40715;55.752;37.884;2023-03-01T14:48:04;98301.44;;;27.66;17.84
54816;BME280;40715;55.752;37.884;2023-03-01T14:50:34;98278.47;;;27.62;17.76